Terminal Aerodrome Forecast
Issued by NWS Flagstaff, AZ

Home | Current Version | Previous Version | Text Only | Print | Product List | Glossary On
Versions: 1 2 3 4 5 6 7 8 9 10 11 12 13 14 15 16 17 18
000
FTUS45 KFGZ 291120
TAFFLG
TAF
KFLG 291120Z 2912/3012 VRB03KT P6SM FEW080
     FM291800 19008KT P6SM VCTS SCT080CB
      TEMPO 2919/2923 VRB15G25KT 4SM TSRA OVC050CB
     FM300300 VRB05KT P6SM SCT090=

USA.gov is the U.S. government's official web portal to all federal, state and local government web resources and services.